sensor_id;sensor_type;location;lat;lon;timestamp;pressure;altitude;pressure_sealevel;temperature;humidity
60974;BME280;46846;51.528;5.076;2023-06-19T00:01:59;100285.56;;;23.75;37.05
60974;BME280;46846;51.528;5.076;2023-06-19T00:04:24;100289.28;;;23.74;36.89
60974;BME280;46846;51.528;5.076;2023-06-19T00:06:52;100282.34;;;23.61;36.59
60974;BME280;46846;51.528;5.076;2023-06-19T00:09:18;100290.91;;;23.67;36.20
60974;BME280;46846;51.528;5.076;2023-06-19T00:11:43;100293.63;;;23.67;36.60
60974;BME280;46846;51.528;5.076;2023-06-19T00:14:09;100295.34;;;23.68;37.23
60974;BME280;46846;51.528;5.076;2023-06-19T00:16:34;100301.69;;;23.58;36.40
60974;BME280;46846;51.528;5.076;2023-06-19T00:18:59;100299.66;;;23.60;37.31
60974;BME280;46846;51.528;5.076;2023-06-19T00:21:25;100293.91;;;23.63;37.25
60974;BME280;46846;51.528;5.076;2023-06-19T00:23:51;100295.38;;;23.58;36.42
60974;BME280;46846;51.528;5.076;2023-06-19T00:26:18;100301.97;;;23.55;36.22
60974;BME280;46846;51.528;5.076;2023-06-19T00:28:44;100307.94;;;23.59;36.19
60974;BME280;46846;51.528;5.076;2023-06-19T00:31:11;100314.28;;;23.49;36.20
60974;BME280;46846;51.528;5.076;2023-06-19T00:33:39;100320.56;;;23.50;36.52
60974;BME280;46846;51.528;5.076;2023-06-19T00:36:11;100320.13;;;23.55;36.72
60974;BME280;46846;51.528;5.076;2023-06-19T00:38:38;100323.44;;;23.48;36.79
60974;BME280;46846;51.528;5.076;2023-06-19T00:41:03;100324.88;;;23.43;36.54
60974;BME280;46846;51.528;5.076;2023-06-19T00:43:30;100325.75;;;23.43;36.75
60974;BME280;46846;51.528;5.076;2023-06-19T00:45:59;100329.03;;;23.47;37.82
60974;BME280;46846;51.528;5.076;2023-06-19T00:48:27;100333.75;;;23.45;36.65
60974;BME280;46846;51.528;5.076;2023-06-19T00:50:52;100341.63;;;23.38;36.66
60974;BME280;46846;51.528;5.076;2023-06-19T00:53:19;100346.34;;;23.36;37.47
60974;BME280;46846;51.528;5.076;2023-06-19T00:55:45;100350.53;;;23.30;36.88
60974;BME280;46846;51.528;5.076;2023-06-19T00:58:11;100354.34;;;23.28;37.41
60974;BME280;46846;51.528;5.076;2023-06-19T01:00:37;100347.38;;;23.25;37.32
60974;BME280;46846;51.528;5.076;2023-06-19T01:03:02;100353.09;;;23.22;37.42
60974;BME280;46846;51.528;5.076;2023-06-19T01:05:29;100360.78;;;23.27;41.86
60974;BME280;46846;51.528;5.076;2023-06-19T01:08:03;100358.66;;;23.20;37.73
60974;BME280;46846;51.528;5.076;2023-06-19T01:10:55;100366.66;;;23.22;37.19
60974;BME280;46846;51.528;5.076;2023-06-19T01:13:27;100361.50;;;23.19;38.30
60974;BME280;46846;51.528;5.076;2023-06-19T01:15:54;100359.22;;;23.24;37.82
60974;BME280;46846;51.528;5.076;2023-06-19T01:18:21;100358.66;;;23.20;38.00
60974;BME280;46846;51.528;5.076;2023-06-19T01:20:47;100360.13;;;23.15;38.15
60974;BME280;46846;51.528;5.076;2023-06-19T01:23:12;100361.41;;;23.11;37.68
60974;BME280;46846;51.528;5.076;2023-06-19T01:25:38;100365.69;;;23.13;37.67
60974;BME280;46846;51.528;5.076;2023-06-19T01:28:06;100362.09;;;23.13;38.47
60974;BME280;46846;51.528;5.076;2023-06-19T01:30:34;100368.84;;;23.08;38.45
60974;BME280;46846;51.528;5.076;2023-06-19T01:35:33;100355.28;;;23.08;38.06
60974;BME280;46846;51.528;5.076;2023-06-19T01:38:00;100360.69;;;23.08;39.33
60974;BME280;46846;51.528;5.076;2023-06-19T01:40:27;100368.69;;;23.10;40.10
60974;BME280;46846;51.528;5.076;2023-06-19T01:42:57;100364.00;;;23.02;37.84
60974;BME280;46846;51.528;5.076;2023-06-19T01:45:29;100359.88;;;22.98;37.92
60974;BME280;46846;51.528;5.076;2023-06-19T01:47:55;100360.16;;;22.95;38.19
60974;BME280;46846;51.528;5.076;2023-06-19T01:50:22;100365.16;;;22.90;38.39
60974;BME280;46846;51.528;5.076;2023-06-19T01:52:49;100362.16;;;22.93;38.47
60974;BME280;46846;51.528;5.076;2023-06-19T01:55:14;100370.44;;;22.91;38.25
60974;BME280;46846;51.528;5.076;2023-06-19T01:57:40;100372.31;;;22.91;39.30
60974;BME280;46846;51.528;5.076;2023-06-19T02:00:06;100380.59;;;22.89;40.00
60974;BME280;46846;51.528;5.076;2023-06-19T02:02:33;100375.03;;;22.91;38.81
60974;BME280;46846;51.528;5.076;2023-06-19T02:04:58;100375.31;;;22.88;38.31
60974;BME280;46846;51.528;5.076;2023-06-19T02:07:24;100379.59;;;22.90;38.87
60974;BME280;46846;51.528;5.076;2023-06-19T02:09:49;100377.19;;;22.87;38.59
60974;BME280;46846;51.528;5.076;2023-06-19T02:12:15;100381.72;;;22.87;39.10
60974;BME280;46846;51.528;5.076;2023-06-19T02:14:40;100383.88;;;22.83;39.22
60974;BME280;46846;51.528;5.076;2023-06-19T02:17:06;100385.59;;;22.84;38.61
60974;BME280;46846;51.528;5.076;2023-06-19T02:19:31;100388.44;;;22.83;38.97
60974;BME280;46846;51.528;5.076;2023-06-19T02:21:56;100387.72;;;22.80;38.99
60974;BME280;46846;51.528;5.076;2023-06-19T02:24:22;100397.00;;;22.78;38.70
60974;BME280;46846;51.528;5.076;2023-06-19T02:26:47;100400.84;;;22.75;38.92
60974;BME280;46846;51.528;5.076;2023-06-19T02:29:13;100399.00;;;22.76;39.90
60974;BME280;46846;51.528;5.076;2023-06-19T02:31:38;100388.47;;;22.73;38.71
60974;BME280;46846;51.528;5.076;2023-06-19T02:34:04;100392.16;;;22.72;39.05
60974;BME280;46846;51.528;5.076;2023-06-19T02:36:29;100394.72;;;22.73;39.38
60974;BME280;46846;51.528;5.076;2023-06-19T02:38:55;100393.59;;;22.76;39.66
60974;BME280;46846;51.528;5.076;2023-06-19T02:41:21;100399.59;;;22.70;39.40
60974;BME280;46846;51.528;5.076;2023-06-19T02:43:46;100402.44;;;22.68;39.62
60974;BME280;46846;51.528;5.076;2023-06-19T02:46:12;100406.13;;;22.67;39.63
60974;BME280;46846;51.528;5.076;2023-06-19T02:48:37;100403.00;;;22.72;39.78
60974;BME280;46846;51.528;5.076;2023-06-19T02:51:03;100410.56;;;22.68;40.61
60974;BME280;46846;51.528;5.076;2023-06-19T02:53:28;100398.31;;;22.64;39.69
60974;BME280;46846;51.528;5.076;2023-06-19T02:55:54;100393.88;;;22.63;40.62
60974;BME280;46846;51.528;5.076;2023-06-19T02:58:19;100401.31;;;22.61;39.13
60974;BME280;46846;51.528;5.076;2023-06-19T03:00:45;100399.56;;;22.60;39.36
60974;BME280;46846;51.528;5.076;2023-06-19T03:03:11;100411.00;;;22.63;41.74
60974;BME280;46846;51.528;5.076;2023-06-19T03:05:37;100416.00;;;22.58;40.72
60974;BME280;46846;51.528;5.076;2023-06-19T03:08:03;100412.28;;;22.59;40.12
60974;BME280;46846;51.528;5.076;2023-06-19T03:10:29;100421.28;;;22.60;41.42
60974;BME280;46846;51.528;5.076;2023-06-19T03:12:55;100415.56;;;22.53;39.68
60974;BME280;46846;51.528;5.076;2023-06-19T03:15:20;100421.88;;;22.53;40.53
60974;BME280;46846;51.528;5.076;2023-06-19T03:17:45;100425.97;;;22.58;40.19
60974;BME280;46846;51.528;5.076;2023-06-19T03:20:11;100419.16;;;22.53;40.20
60974;BME280;46846;51.528;5.076;2023-06-19T03:22:39;100421.81;;;22.44;39.60
60974;BME280;46846;51.528;5.076;2023-06-19T03:25:05;100428.66;;;22.48;39.77
60974;BME280;46846;51.528;5.076;2023-06-19T03:27:31;100428.94;;;22.45;39.71
60974;BME280;46846;51.528;5.076;2023-06-19T03:29:57;100429.22;;;22.42;40.36
60974;BME280;46846;51.528;5.076;2023-06-19T03:32:22;100434.63;;;22.42;40.27
60974;BME280;46846;51.528;5.076;2023-06-19T03:34:48;100439.22;;;22.41;40.74
60974;BME280;46846;51.528;5.076;2023-06-19T03:37:13;100440.22;;;22.40;40.39
60974;BME280;46846;51.528;5.076;2023-06-19T03:39:38;100439.91;;;22.33;42.35
60974;BME280;46846;51.528;5.076;2023-06-19T03:42:04;100443.47;;;22.34;40.43
60974;BME280;46846;51.528;5.076;2023-06-19T03:44:30;100444.59;;;22.31;40.70
60974;BME280;46846;51.528;5.076;2023-06-19T03:46:55;100444.59;;;22.31;40.77
60974;BME280;46846;51.528;5.076;2023-06-19T03:49:20;100463.03;;;22.37;40.97
60974;BME280;46846;51.528;5.076;2023-06-19T03:51:46;100456.59;;;22.29;40.76
60974;BME280;46846;51.528;5.076;2023-06-19T03:54:11;100460.59;;;22.24;40.70
60974;BME280;46846;51.528;5.076;2023-06-19T03:56:38;100467.59;;;22.27;42.74
60974;BME280;46846;51.528;5.076;2023-06-19T03:59:03;100478.56;;;22.25;41.38
60974;BME280;46846;51.528;5.076;2023-06-19T04:01:28;100468.56;;;22.26;40.92
60974;BME280;46846;51.528;5.076;2023-06-19T04:03:54;100475.56;;;22.29;42.10
60974;BME280;46846;51.528;5.076;2023-06-19T04:06:19;100474.84;;;22.26;41.90
60974;BME280;46846;51.528;5.076;2023-06-19T04:08:45;100481.13;;;22.27;41.74
60974;BME280;46846;51.528;5.076;2023-06-19T04:11:10;100485.69;;;22.26;42.11
60974;BME280;46846;51.528;5.076;2023-06-19T04:13:36;100481.97;;;22.27;40.75
60974;BME280;46846;51.528;5.076;2023-06-19T04:16:01;100483.69;;;22.29;42.60
60974;BME280;46846;51.528;5.076;2023-06-19T04:18:26;100498.22;;;22.27;42.34
60974;BME280;46846;51.528;5.076;2023-06-19T04:20:53;100493.53;;;22.20;40.83
60974;BME280;46846;51.528;5.076;2023-06-19T04:23:18;100499.53;;;22.23;41.51
60974;BME280;46846;51.528;5.076;2023-06-19T04:25:43;100496.06;;;22.21;41.14
60974;BME280;46846;51.528;5.076;2023-06-19T04:28:09;100502.78;;;22.17;41.48
60974;BME280;46846;51.528;5.076;2023-06-19T04:30:34;100505.50;;;22.17;41.25
60974;BME280;46846;51.528;5.076;2023-06-19T04:33:00;100503.38;;;22.21;42.43
60974;BME280;46846;51.528;5.076;2023-06-19T04:35:26;100514.88;;;22.13;42.15
60974;BME280;46846;51.528;5.076;2023-06-19T04:37:52;100514.75;;;22.15;41.23
60974;BME280;46846;51.528;5.076;2023-06-19T04:40:18;100518.44;;;22.13;43.15
60974;BME280;46846;51.528;5.076;2023-06-19T04:42:43;100520.41;;;22.11;42.07
60974;BME280;46846;51.528;5.076;2023-06-19T04:45:09;100525.13;;;22.09;41.24
60974;BME280;46846;51.528;5.076;2023-06-19T04:47:35;100530.94;;;22.05;41.66
60974;BME280;46846;51.528;5.076;2023-06-19T04:50:00;100530.81;;;22.06;42.59
60974;BME280;46846;51.528;5.076;2023-06-19T04:52:26;100533.53;;;22.06;42.96
60974;BME280;46846;51.528;5.076;2023-06-19T04:54:51;100539.50;;;22.00;42.76
60974;BME280;46846;51.528;5.076;2023-06-19T04:57:17;100541.63;;;21.96;42.38
60974;BME280;46846;51.528;5.076;2023-06-19T04:59:43;100545.03;;;21.98;41.91
60974;BME280;46846;51.528;5.076;2023-06-19T05:02:12;100543.00;;;21.91;41.66
60974;BME280;46846;51.528;5.076;2023-06-19T05:04:37;100544.59;;;21.93;42.49
60974;BME280;46846;51.528;5.076;2023-06-19T05:07:03;100534.03;;;21.90;41.99
60974;BME280;46846;51.528;5.076;2023-06-19T05:09:29;100536.00;;;21.88;42.82
60974;BME280;46846;51.528;5.076;2023-06-19T05:11:55;100537.84;;;21.88;42.11
60974;BME280;46846;51.528;5.076;2023-06-19T05:14:20;100545.56;;;21.92;44.43
60974;BME280;46846;51.528;5.076;2023-06-19T05:16:46;100537.44;;;21.92;43.24
60974;BME280;46846;51.528;5.076;2023-06-19T05:19:11;100545.72;;;21.91;42.72
60974;BME280;46846;51.528;5.076;2023-06-19T05:21:36;100553.84;;;21.91;46.16
60974;BME280;46846;51.528;5.076;2023-06-19T05:24:02;100556.97;;;21.86;43.25
60974;BME280;46846;51.528;5.076;2023-06-19T05:26:27;100558.94;;;21.84;42.16
60974;BME280;46846;51.528;5.076;2023-06-19T05:28:53;100559.13;;;21.92;43.64
60974;BME280;46846;51.528;5.076;2023-06-19T05:31:18;100556.09;;;21.85;42.06
60974;BME280;46846;51.528;5.076;2023-06-19T05:33:44;100561.63;;;21.84;42.54
60974;BME280;46846;51.528;5.076;2023-06-19T05:36:10;100565.09;;;21.86;45.29
60974;BME280;46846;51.528;5.076;2023-06-19T05:38:36;100573.06;;;21.88;44.08
60974;BME280;46846;51.528;5.076;2023-06-19T05:41:02;100573.94;;;21.88;44.77
60974;BME280;46846;51.528;5.076;2023-06-19T05:43:27;100565.81;;;21.88;43.05
60974;BME280;46846;51.528;5.076;2023-06-19T05:45:53;100565.41;;;21.93;42.71
60974;BME280;46846;51.528;5.076;2023-06-19T05:48:20;100568.81;;;21.95;43.60
60974;BME280;46846;51.528;5.076;2023-06-19T05:50:46;100570.53;;;21.96;43.83
60974;BME280;46846;51.528;5.076;2023-06-19T05:53:12;100565.41;;;21.93;42.86
60974;BME280;46846;51.528;5.076;2023-06-19T05:55:37;100571.41;;;21.96;43.35
60974;BME280;46846;51.528;5.076;2023-06-19T05:58:02;100576.69;;;21.98;42.09
60974;BME280;46846;51.528;5.076;2023-06-19T06:00:29;100576.88;;;22.06;43.03
60974;BME280;46846;51.528;5.076;2023-06-19T06:02:56;100589.50;;;21.96;43.17
60974;BME280;46846;51.528;5.076;2023-06-19T06:05:23;100588.38;;;21.98;43.41
60974;BME280;46846;51.528;5.076;2023-06-19T06:07:49;100589.38;;;21.97;42.96
60974;BME280;46846;51.528;5.076;2023-06-19T06:10:15;100595.78;;;21.96;42.22
60974;BME280;46846;51.528;5.076;2023-06-19T06:12:42;100603.19;;;21.94;42.68
60974;BME280;46846;51.528;5.076;2023-06-19T06:15:07;100599.94;;;22.01;43.32
60974;BME280;46846;51.528;5.076;2023-06-19T06:17:33;100602.41;;;22.04;43.27
60974;BME280;46846;51.528;5.076;2023-06-19T06:19:58;100607.94;;;22.02;44.26
60974;BME280;46846;51.528;5.076;2023-06-19T06:22:24;100612.34;;;22.03;42.78
60974;BME280;46846;51.528;5.076;2023-06-19T06:24:50;100623.06;;;22.05;44.29
60974;BME280;46846;51.528;5.076;2023-06-19T06:27:15;100622.19;;;22.04;43.00
60974;BME280;46846;51.528;5.076;2023-06-19T06:29:40;100625.31;;;21.99;42.58
60974;BME280;46846;51.528;5.076;2023-06-19T06:32:07;100631.66;;;22.10;42.40
60974;BME280;46846;51.528;5.076;2023-06-19T06:34:33;100628.09;;;22.09;43.71
60974;BME280;46846;51.528;5.076;2023-06-19T06:36:59;100632.50;;;22.10;45.79
60974;BME280;46846;51.528;5.076;2023-06-19T06:39:25;100627.25;;;22.09;43.56
60974;BME280;46846;51.528;5.076;2023-06-19T06:41:51;100649.63;;;22.11;43.31
60974;BME280;46846;51.528;5.076;2023-06-19T06:44:17;100649.63;;;22.11;42.52
60974;BME280;46846;51.528;5.076;2023-06-19T06:46:42;100653.34;;;22.10;42.07
60974;BME280;46846;51.528;5.076;2023-06-19T06:49:07;100644.34;;;22.09;42.48
60974;BME280;46846;51.528;5.076;2023-06-19T06:51:33;100643.94;;;22.14;42.27
60974;BME280;46846;51.528;5.076;2023-06-19T06:53:58;100645.41;;;22.18;42.63
60974;BME280;46846;51.528;5.076;2023-06-19T06:56:24;100655.13;;;22.21;42.19
60974;BME280;46846;51.528;5.076;2023-06-19T06:58:49;100658.53;;;22.23;42.71
60974;BME280;46846;51.528;5.076;2023-06-19T07:01:15;100657.97;;;22.19;42.21
60974;BME280;46846;51.528;5.076;2023-06-19T07:03:40;100663.09;;;22.22;42.39
60974;BME280;46846;51.528;5.076;2023-06-19T07:06:06;100671.22;;;22.22;42.14
60974;BME280;46846;51.528;5.076;2023-06-19T07:08:31;100672.56;;;22.28;42.34
60974;BME280;46846;51.528;5.076;2023-06-19T07:10:56;100680.69;;;22.28;42.17
60974;BME280;46846;51.528;5.076;2023-06-19T07:13:23;100675.88;;;22.32;41.95
60974;BME280;46846;51.528;5.076;2023-06-19T07:15:48;100686.56;;;22.33;42.31
60974;BME280;46846;51.528;5.076;2023-06-19T07:18:14;100684.72;;;22.34;42.14
60974;BME280;46846;51.528;5.076;2023-06-19T07:20:39;100693.16;;;22.40;43.17
60974;BME280;46846;51.528;5.076;2023-06-19T07:23:05;100694.03;;;22.41;41.91
60974;BME280;46846;51.528;5.076;2023-06-19T07:25:31;100694.63;;;22.45;42.26
60974;BME280;46846;51.528;5.076;2023-06-19T07:27:59;100703.88;;;22.42;42.32
60974;BME280;46846;51.528;5.076;2023-06-19T07:30:24;100698.47;;;22.42;42.19
60974;BME280;46846;51.528;5.076;2023-06-19T07:32:50;100707.78;;;22.49;42.36
60974;BME280;46846;51.528;5.076;2023-06-19T07:35:15;100698.91;;;22.47;42.22
60974;BME280;46846;51.528;5.076;2023-06-19T07:37:40;100700.63;;;22.48;42.34
60974;BME280;46846;51.528;5.076;2023-06-19T07:40:06;100699.38;;;22.52;42.49
60974;BME280;46846;51.528;5.076;2023-06-19T07:42:32;100704.56;;;22.56;42.39
60974;BME280;46846;51.528;5.076;2023-06-19T07:44:57;100691.13;;;22.54;42.28
60974;BME280;46846;51.528;5.076;2023-06-19T07:47:23;100695.44;;;22.57;42.49
60974;BME280;46846;51.528;5.076;2023-06-19T07:49:48;100699.31;;;22.64;42.47
60974;BME280;46846;51.528;5.076;2023-06-19T07:52:13;100712.59;;;22.67;43.04
60974;BME280;46846;51.528;5.076;2023-06-19T07:54:51;100713.47;;;22.67;42.38
60974;BME280;46846;51.528;5.076;2023-06-19T07:57:17;100715.06;;;22.70;42.58
60974;BME280;46846;51.528;5.076;2023-06-19T07:59:42;100722.66;;;22.76;43.29
60974;BME280;46846;51.528;5.076;2023-06-19T08:02:07;100731.63;;;22.77;42.23
60974;BME280;46846;51.528;5.076;2023-06-19T08:04:33;100731.50;;;22.78;43.02
60974;BME280;46846;51.528;5.076;2023-06-19T08:06:58;100724.38;;;22.77;42.49
60974;BME280;46846;51.528;5.076;2023-06-19T08:09:23;100716.66;;;22.83;42.41
60974;BME280;46846;51.528;5.076;2023-06-19T08:11:49;100720.94;;;22.85;42.30
60974;BME280;46846;51.528;5.076;2023-06-19T08:14:14;100721.69;;;22.87;42.28
60974;BME280;46846;51.528;5.076;2023-06-19T08:16:40;100717.69;;;22.91;42.25
60974;BME280;46846;51.528;5.076;2023-06-19T08:19:05;100718.81;;;22.89;42.35
60974;BME280;46846;51.528;5.076;2023-06-19T08:21:30;100718.56;;;22.92;42.20
60974;BME280;46846;51.528;5.076;2023-06-19T08:23:56;100720.88;;;22.97;42.68
60974;BME280;46846;51.528;5.076;2023-06-19T08:26:21;100716.44;;;22.96;42.42
60974;BME280;46846;51.528;5.076;2023-06-19T08:28:47;100717.63;;;23.03;42.43
60974;BME280;46846;51.528;5.076;2023-06-19T08:31:13;100724.47;;;23.07;42.33
60974;BME280;46846;51.528;5.076;2023-06-19T08:33:38;100727.75;;;23.11;42.11
60974;BME280;46846;51.528;5.076;2023-06-19T08:36:04;100736.34;;;23.16;42.35
60974;BME280;46846;51.528;5.076;2023-06-19T08:38:30;100737.34;;;23.15;41.92
60974;BME280;46846;51.528;5.076;2023-06-19T08:40:55;100734.34;;;23.18;42.05
60974;BME280;46846;51.528;5.076;2023-06-19T08:43:21;100728.66;;;23.21;42.37
60974;BME280;46846;51.528;5.076;2023-06-19T08:46:10;100731.22;;;23.22;42.01
60974;BME280;46846;51.528;5.076;2023-06-19T08:48:36;100738.94;;;23.27;42.03
60974;BME280;46846;51.528;5.076;2023-06-19T08:51:03;100741.13;;;23.33;42.13
60974;BME280;46846;51.528;5.076;2023-06-19T08:53:32;100746.31;;;23.37;42.04
60974;BME280;46846;51.528;5.076;2023-06-19T08:55:58;100744.31;;;23.39;42.01
60974;BME280;46846;51.528;5.076;2023-06-19T08:58:23;100743.88;;;23.43;41.81
60974;BME280;46846;51.528;5.076;2023-06-19T09:00:49;100753.31;;;23.49;42.30
60974;BME280;46846;51.528;5.076;2023-06-19T09:03:20;100762.47;;;23.48;41.76
60974;BME280;46846;51.528;5.076;2023-06-19T09:05:47;100760.78;;;23.57;41.95
60974;BME280;46846;51.528;5.076;2023-06-19T09:08:15;100763.38;;;23.58;42.49
60974;BME280;46846;51.528;5.076;2023-06-19T09:10:41;100761.94;;;23.64;42.12
60974;BME280;46846;51.528;5.076;2023-06-19T09:13:07;100760.50;;;23.70;42.11
60974;BME280;46846;51.528;5.076;2023-06-19T09:15:36;100766.53;;;23.73;41.78
60974;BME280;46846;51.528;5.076;2023-06-19T09:18:08;100766.53;;;23.73;41.65
60974;BME280;46846;51.528;5.076;2023-06-19T09:20:37;100765.09;;;23.79;41.69
60974;BME280;46846;51.528;5.076;2023-06-19T09:23:09;100761.94;;;23.84;41.76
60974;BME280;46846;51.528;5.076;2023-06-19T09:25:52;100771.09;;;23.93;41.77
60974;BME280;46846;51.528;5.076;2023-06-19T09:28:22;100783.44;;;23.97;41.61
60974;BME280;46846;51.528;5.076;2023-06-19T09:31:01;100785.72;;;24.01;41.60
60974;BME280;46846;51.528;5.076;2023-06-19T09:33:29;100778.25;;;24.03;41.52
60974;BME280;46846;51.528;5.076;2023-06-19T09:35:56;100769.44;;;24.11;41.60
60974;BME280;46846;51.528;5.076;2023-06-19T09:38:28;100781.47;;;24.19;41.43
60974;BME280;46846;51.528;5.076;2023-06-19T09:40:55;100780.16;;;24.23;41.33
60974;BME280;46846;51.528;5.076;2023-06-19T09:43:30;100789.59;;;24.28;41.23
60974;BME280;46846;51.528;5.076;2023-06-19T09:45:58;100779.84;;;24.36;41.83
60974;BME280;46846;51.528;5.076;2023-06-19T09:48:29;100781.28;;;24.40;41.21
60974;BME280;46846;51.528;5.076;2023-06-19T09:51:01;100780.53;;;24.48;41.06
60974;BME280;46846;51.528;5.076;2023-06-19T09:53:27;100782.13;;;24.50;41.06
60974;BME280;46846;51.528;5.076;2023-06-19T09:55:53;100773.50;;;24.55;41.40
60974;BME280;46846;51.528;5.076;2023-06-19T09:58:20;100768.50;;;24.60;41.06
60974;BME280;46846;51.528;5.076;2023-06-19T10:00:46;100780.66;;;24.66;41.15
60974;BME280;46846;51.528;5.076;2023-06-19T10:03:15;100787.22;;;24.73;41.21
60974;BME280;46846;51.528;5.076;2023-06-19T10:05:42;100791.09;;;24.80;40.92
60974;BME280;46846;51.528;5.076;2023-06-19T10:08:08;100781.66;;;24.84;40.99
60974;BME280;46846;51.528;5.076;2023-06-19T10:10:34;100778.16;;;24.92;41.02
60974;BME280;46846;51.528;5.076;2023-06-19T10:13:12;100784.72;;;24.99;40.71
60974;BME280;46846;51.528;5.076;2023-06-19T10:15:41;100783.13;;;25.07;40.68
60974;BME280;46846;51.528;5.076;2023-06-19T10:18:16;100777.94;;;25.14;40.71
60974;BME280;46846;51.528;5.076;2023-06-19T10:20:42;100783.78;;;25.19;40.67
60974;BME280;46846;51.528;5.076;2023-06-19T10:23:14;100783.34;;;25.23;40.65
60974;BME280;46846;51.528;5.076;2023-06-19T10:25:44;100789.03;;;25.30;40.81
60974;BME280;46846;51.528;5.076;2023-06-19T10:30:59;100788.69;;;25.43;40.53
60974;BME280;46846;51.528;5.076;2023-06-19T10:33:27;100788.22;;;25.48;40.72
60974;BME280;46846;51.528;5.076;2023-06-19T10:35:53;100784.34;;;25.50;40.60
60974;BME280;46846;51.528;5.076;2023-06-19T10:38:19;100793.09;;;25.54;40.54
60974;BME280;46846;51.528;5.076;2023-06-19T10:40:45;100790.78;;;25.59;40.53
60974;BME280;46846;51.528;5.076;2023-06-19T10:43:12;100788.59;;;25.63;40.34
60974;BME280;46846;51.528;5.076;2023-06-19T10:45:37;100791.56;;;25.70;40.41
60974;BME280;46846;51.528;5.076;2023-06-19T10:48:03;100783.09;;;25.73;40.39
60974;BME280;46846;51.528;5.076;2023-06-19T10:50:30;100781.06;;;25.75;40.25
60974;BME280;46846;51.528;5.076;2023-06-19T10:52:59;100787.75;;;25.80;39.86
60974;BME280;46846;51.528;5.076;2023-06-19T10:55:24;100781.28;;;25.82;40.08
60974;BME280;46846;51.528;5.076;2023-06-19T10:57:50;100776.38;;;25.85;39.89
60974;BME280;46846;51.528;5.076;2023-06-19T11:00:27;100792.59;;;25.87;40.01
60974;BME280;46846;51.528;5.076;2023-06-19T11:02:53;100776.47;;;25.93;39.98
60974;BME280;46846;51.528;5.076;2023-06-19T11:05:23;100775.31;;;25.96;39.83
60974;BME280;46846;51.528;5.076;2023-06-19T11:07:56;100779.13;;;26.03;39.61
60974;BME280;46846;51.528;5.076;2023-06-19T11:10:27;100776.09;;;26.06;39.83
60974;BME280;46846;51.528;5.076;2023-06-19T11:12:58;100775.47;;;26.13;39.56
60974;BME280;46846;51.528;5.076;2023-06-19T11:15:33;100767.84;;;26.16;39.76
60974;BME280;46846;51.528;5.076;2023-06-19T11:18:01;100770.97;;;26.21;39.21
60974;BME280;46846;51.528;5.076;2023-06-19T11:20:27;100766.03;;;26.25;39.50
60974;BME280;46846;51.528;5.076;2023-06-19T11:22:59;100766.44;;;26.30;39.38
60974;BME280;46846;51.528;5.076;2023-06-19T11:25:38;100772.44;;;26.34;39.31
60974;BME280;46846;51.528;5.076;2023-06-19T11:28:14;100772.09;;;26.37;39.34
60974;BME280;46846;51.528;5.076;2023-06-19T11:30:40;100785.44;;;26.40;39.52
60974;BME280;46846;51.528;5.076;2023-06-19T11:33:19;100776.25;;;26.41;39.32
60974;BME280;46846;51.528;5.076;2023-06-19T11:35:52;100780.19;;;26.47;39.24
60974;BME280;46846;51.528;5.076;2023-06-19T11:38:22;100760.78;;;26.50;39.14
60974;BME280;46846;51.528;5.076;2023-06-19T11:40:48;100766.56;;;26.47;38.76
60974;BME280;46846;51.528;5.076;2023-06-19T11:43:34;100775.28;;;26.51;38.75
60974;BME280;46846;51.528;5.076;2023-06-19T11:46:04;100761.53;;;26.60;38.60
60974;BME280;46846;51.528;5.076;2023-06-19T11:48:30;100764.66;;;26.66;38.92
60974;BME280;46846;51.528;5.076;2023-06-19T11:50:55;100771.47;;;26.70;38.73
60974;BME280;46846;51.528;5.076;2023-06-19T11:53:21;100758.53;;;26.72;38.49
60974;BME280;46846;51.528;5.076;2023-06-19T11:55:47;100751.94;;;26.83;37.93
60974;BME280;46846;51.528;5.076;2023-06-19T11:58:13;100756.69;;;26.81;38.34
60974;BME280;46846;51.528;5.076;2023-06-19T12:00:40;100758.59;;;26.80;38.40
60974;BME280;46846;51.528;5.076;2023-06-19T12:03:06;100753.47;;;26.85;38.56
60974;BME280;46846;51.528;5.076;2023-06-19T12:05:31;100755.44;;;26.93;38.39
60974;BME280;46846;51.528;5.076;2023-06-19T12:07:57;100754.59;;;27.01;38.11
60974;BME280;46846;51.528;5.076;2023-06-19T12:10:23;100754.31;;;27.04;37.60
60974;BME280;46846;51.528;5.076;2023-06-19T12:12:48;100763.66;;;27.01;37.91
60974;BME280;46846;51.528;5.076;2023-06-19T12:15:14;100764.38;;;27.12;37.76
60974;BME280;46846;51.528;5.076;2023-06-19T12:17:40;100766.28;;;27.11;37.51
60974;BME280;46846;51.528;5.076;2023-06-19T12:20:06;100765.09;;;27.14;37.28
60974;BME280;46846;51.528;5.076;2023-06-19T12:22:33;100767.13;;;27.12;37.56
60974;BME280;46846;51.528;5.076;2023-06-19T12:24:59;100765.44;;;27.19;37.53
60974;BME280;46846;51.528;5.076;2023-06-19T12:27:25;100766.84;;;27.23;37.07
60974;BME280;46846;51.528;5.076;2023-06-19T12:29:50;100763.09;;;27.24;37.54
60974;BME280;46846;51.528;5.076;2023-06-19T12:32:16;100763.59;;;27.28;37.48
60974;BME280;46846;51.528;5.076;2023-06-19T12:34:41;100763.63;;;27.36;36.97
60974;BME280;46846;51.528;5.076;2023-06-19T12:37:15;100758.53;;;27.41;37.15
60974;BME280;46846;51.528;5.076;2023-06-19T12:39:41;100761.59;;;27.47;37.20
60974;BME280;46846;51.528;5.076;2023-06-19T12:42:07;100760.25;;;27.51;37.05
60974;BME280;46846;51.528;5.076;2023-06-19T12:44:32;100752.47;;;27.56;37.12
60974;BME280;46846;51.528;5.076;2023-06-19T12:46:58;100742.22;;;27.58;36.48
60974;BME280;46846;51.528;5.076;2023-06-19T12:49:25;100742.56;;;27.63;36.69
60974;BME280;46846;51.528;5.076;2023-06-19T12:51:51;100739.13;;;27.69;36.51
60974;BME280;46846;51.528;5.076;2023-06-19T12:54:17;100746.66;;;27.76;36.31